R5462 YADG-YADG
Flight info
| Callsign | R5462 |
|---|---|
| Flight time | 1h 50m |
| Altitude | 5000 |
| Route | PNL BTJ/N0148F005 MA05 DCT SKI/N0148F050 YPPF/CCTS SKI MA05 BTJ PNL |
| Aircraft | CRUZ/L-SDGRY/S |
Departure
| Time | 2026-04-29 08:35 |
|---|---|
| Airport | Aldinga Airport (YADG) |
Arrival
| Time | 2026-04-29 10:25 |
|---|---|
| Airport | Aldinga Airport (YADG) |
| Time | Latitude | Longitude | Altitude | Speed | Heading |
|---|---|---|---|---|---|
| 2026-04-29 08:27 | -35.28740 | 138.49228 | 117 ft | 0 kts | 53° |
| 2026-04-29 08:30 | -35.28746 | 138.49232 | 117 ft | 0 kts | 211° |
| 2026-04-29 08:31 | -35.28772 | 138.49226 | 117 ft | 11 kts | 134° |
| 2026-04-29 08:31 | -35.28852 | 138.49310 | 119 ft | 17 kts | 145° |
| 2026-04-29 08:31 | -35.28936 | 138.49301 | 119 ft | 17 kts | 219° |
| 2026-04-29 08:31 | -35.29054 | 138.49203 | 117 ft | 18 kts | 216° |
| 2026-04-29 08:32 | -35.29082 | 138.49176 | 116 ft | 4 kts | 225° |
| 2026-04-29 08:32 | -35.29077 | 138.49167 | 116 ft | 0 kts | 53° |
| 2026-04-29 08:33 | -35.29086 | 138.49173 | 116 ft | 7 kts | 193° |
| 2026-04-29 08:34 | -35.29129 | 138.49161 | 116 ft | 5 kts | 177° |
| 2026-04-29 08:34 | -35.29153 | 138.49164 | 116 ft | 7 kts | 177° |
| 2026-04-29 08:34 | -35.29222 | 138.49124 | 115 ft | 14 kts | 214° |
| 2026-04-29 08:34 | -35.29263 | 138.49110 | 114 ft | 6 kts | 194° |
| 2026-04-29 08:35 | -35.29246 | 138.49103 | 114 ft | 5 kts | 36° |
| 2026-04-29 08:35 | -35.29147 | 138.49187 | 117 ft | 47 kts | 36° |
| 2026-04-29 08:35 | -35.28737 | 138.49518 | 330 ft | 79 kts | 29° |
| 2026-04-29 08:35 | -35.28273 | 138.49831 | 760 ft | 69 kts | 22° |
| 2026-04-29 08:36 | -35.27850 | 138.50127 | 1010 ft | 77 kts | 14° |
| 2026-04-29 08:36 | -35.27346 | 138.49789 | 1219 ft | 103 kts | 308° |
| 2026-04-29 08:36 | -35.27022 | 138.49031 | 1510 ft | 102 kts | 299° |
| 2026-04-29 08:36 | -35.26796 | 138.48218 | 1761 ft | 98 kts | 298° |
| 2026-04-29 08:37 | -35.26591 | 138.47433 | 1961 ft | 92 kts | 306° |
| 2026-04-29 08:37 | -35.26317 | 138.46745 | 2116 ft | 89 kts | 313° |
| 2026-04-29 08:37 | -35.25925 | 138.46210 | 2268 ft | 81 kts | 326° |
| 2026-04-29 08:37 | -35.25489 | 138.45761 | 2384 ft | 83 kts | 333° |
| 2026-04-29 08:38 | -35.24952 | 138.45413 | 2423 ft | 90 kts | 346° |
| 2026-04-29 08:38 | -35.24329 | 138.45201 | 2471 ft | 96 kts | 347° |
| 2026-04-29 08:38 | -35.23736 | 138.45015 | 2679 ft | 77 kts | 349° |
| 2026-04-29 08:38 | -35.23257 | 138.44867 | 2813 ft | 64 kts | 353° |
| 2026-04-29 08:39 | -35.22793 | 138.44762 | 2852 ft | 62 kts | 353° |
| 2026-04-29 08:39 | -35.22352 | 138.44710 | 2864 ft | 64 kts | 10° |
| 2026-04-29 08:39 | -35.21892 | 138.44717 | 2846 ft | 73 kts | 353° |
| 2026-04-29 08:39 | -35.21396 | 138.44568 | 2919 ft | 67 kts | 348° |
| 2026-04-29 08:40 | -35.20996 | 138.44426 | 3032 ft | 53 kts | 7° |
| 2026-04-29 08:40 | -35.20620 | 138.44577 | 3212 ft | 65 kts | 14° |
| 2026-04-29 08:40 | -35.20123 | 138.44771 | 3394 ft | 83 kts | 14° |
| 2026-04-29 08:40 | -35.19525 | 138.45001 | 3564 ft | 97 kts | 15° |
| 2026-04-29 08:41 | -35.18815 | 138.45055 | 3731 ft | 106 kts | 0° |
| 2026-04-29 08:41 | -35.18087 | 138.45023 | 3882 ft | 103 kts | 359° |
| 2026-04-29 08:41 | -35.17380 | 138.44992 | 4066 ft | 99 kts | 359° |
| 2026-04-29 08:41 | -35.16696 | 138.44981 | 4244 ft | 96 kts | 5° |
| 2026-04-29 08:42 | -35.16037 | 138.45050 | 4424 ft | 93 kts | 5° |
| 2026-04-29 08:42 | -35.15398 | 138.45116 | 4613 ft | 91 kts | 5° |
| 2026-04-29 08:42 | -35.14776 | 138.45178 | 4803 ft | 88 kts | 4° |
| 2026-04-29 08:42 | -35.14175 | 138.45239 | 4990 ft | 86 kts | 4° |
| 2026-04-29 08:43 | -35.13547 | 138.45306 | 5008 ft | 98 kts | 7° |
| 2026-04-29 08:43 | -35.12870 | 138.45409 | 4679 ft | 94 kts | 11° |
| 2026-04-29 08:43 | -35.12278 | 138.45702 | 4317 ft | 89 kts | 30° |
| 2026-04-29 08:43 | -35.11790 | 138.46075 | 4078 ft | 79 kts | 32° |
| 2026-04-29 08:44 | -35.11328 | 138.46443 | 3757 ft | 80 kts | 27° |
| 2026-04-29 08:44 | -35.10862 | 138.46756 | 3514 ft | 73 kts | 22° |
| 2026-04-29 08:44 | -35.10405 | 138.46970 | 3292 ft | 68 kts | 20° |
| 2026-04-29 08:44 | -35.09966 | 138.47183 | 3051 ft | 67 kts | 19° |
| 2026-04-29 08:45 | -35.09526 | 138.47357 | 2843 ft | 63 kts | 20° |
| 2026-04-29 08:45 | -35.09096 | 138.47543 | 2552 ft | 73 kts | 18° |
| 2026-04-29 08:45 | -35.08630 | 138.47761 | 2329 ft | 68 kts | 21° |
| 2026-04-29 08:45 | -35.08193 | 138.47948 | 2102 ft | 66 kts | 16° |
| 2026-04-29 08:46 | -35.07744 | 138.48134 | 1804 ft | 72 kts | 24° |
| 2026-04-29 08:46 | -35.07280 | 138.48428 | 1483 ft | 79 kts | 28° |
| 2026-04-29 08:46 | -35.06755 | 138.48744 | 1239 ft | 87 kts | 23° |
| 2026-04-29 08:46 | -35.06194 | 138.48946 | 1085 ft | 84 kts | 10° |
| 2026-04-29 08:47 | -35.05706 | 138.49144 | 1000 ft | 71 kts | 20° |
| 2026-04-29 08:47 | -35.05215 | 138.49345 | 868 ft | 74 kts | 17° |
| 2026-04-29 08:47 | -35.04713 | 138.49486 | 782 ft | 73 kts | 11° |
| 2026-04-29 08:47 | -35.04209 | 138.49597 | 703 ft | 73 kts | 8° |
| 2026-04-29 08:48 | -35.03778 | 138.49861 | 673 ft | 70 kts | 52° |
| 2026-04-29 08:48 | -35.03536 | 138.50400 | 611 ft | 72 kts | 50° |
| 2026-04-29 08:48 | -35.03202 | 138.50862 | 573 ft | 69 kts | 40° |
| 2026-04-29 08:48 | -35.02838 | 138.51233 | 538 ft | 68 kts | 31° |
| 2026-04-29 08:49 | -35.02405 | 138.51460 | 534 ft | 63 kts | 355° |
| 2026-04-29 08:49 | -35.02274 | 138.50981 | 476 ft | 85 kts | 229° |
| 2026-04-29 08:49 | -35.02746 | 138.51062 | 430 ft | 72 kts | 88° |
| 2026-04-29 08:49 | -35.02424 | 138.51181 | 433 ft | 71 kts | 337° |
| 2026-04-29 08:50 | -35.02019 | 138.50905 | 621 ft | 60 kts | 337° |
| 2026-04-29 08:50 | -35.01733 | 138.51106 | 680 ft | 71 kts | 99° |
| 2026-04-29 08:50 | -35.02137 | 138.50984 | 717 ft | 81 kts | 298° |
| 2026-04-29 08:50 | -35.01656 | 138.50858 | 647 ft | 85 kts | 354° |
| 2026-04-29 08:51 | -35.01087 | 138.50633 | 676 ft | 89 kts | 351° |
| 2026-04-29 08:51 | -35.00444 | 138.50513 | 650 ft | 97 kts | 354° |
| 2026-04-29 08:51 | -34.99753 | 138.50446 | 658 ft | 99 kts | 1° |
| 2026-04-29 08:51 | -34.99058 | 138.50461 | 695 ft | 96 kts | 2° |
| 2026-04-29 08:52 | -34.98377 | 138.50426 | 641 ft | 102 kts | 357° |
| 2026-04-29 08:52 | -34.97686 | 138.50301 | 641 ft | 102 kts | 350° |
| 2026-04-29 08:52 | -34.96994 | 138.50052 | 630 ft | 104 kts | 343° |
| 2026-04-29 08:52 | -34.96343 | 138.49736 | 661 ft | 101 kts | 340° |
| 2026-04-29 08:53 | -34.95701 | 138.49390 | 698 ft | 96 kts | 346° |
| 2026-04-29 08:53 | -34.95088 | 138.49147 | 1074 ft | 91 kts | 342° |
| 2026-04-29 08:53 | -34.94510 | 138.48830 | 1466 ft | 89 kts | 337° |
| 2026-04-29 08:53 | -34.93950 | 138.48442 | 1783 ft | 96 kts | 331° |
| 2026-04-29 08:54 | -34.93370 | 138.48070 | 2045 ft | 102 kts | 340° |
| 2026-04-29 08:54 | -34.92718 | 138.47687 | 2296 ft | 109 kts | 336° |
| 2026-04-29 08:54 | -34.91988 | 138.47250 | 2515 ft | 112 kts | 339° |
| 2026-04-29 08:54 | -34.91482 | 138.46867 | 3138 ft | 74 kts | 339° |
| 2026-04-29 08:55 | -34.90995 | 138.46658 | 2951 ft | 79 kts | 352° |
| 2026-04-29 08:55 | -34.90437 | 138.46558 | 2832 ft | 80 kts | 358° |
| 2026-04-29 08:55 | -34.89904 | 138.46516 | 2775 ft | 74 kts | 359° |
| 2026-04-29 08:55 | -34.89392 | 138.46423 | 2762 ft | 72 kts | 348° |
| 2026-04-29 08:56 | -34.88996 | 138.46017 | 2745 ft | 77 kts | 321° |
| 2026-04-29 08:56 | -34.88641 | 138.45828 | 2743 ft | 66 kts | 358° |
| 2026-04-29 08:57 | -34.88393 | 138.45792 | 2668 ft | 75 kts | 355° |
| 2026-04-29 08:57 | -34.87883 | 138.45711 | 2651 ft | 71 kts | 357° |
| 2026-04-29 08:57 | -34.87395 | 138.45589 | 2607 ft | 73 kts | 346° |
| 2026-04-29 08:58 | -34.86897 | 138.45410 | 2575 ft | 74 kts | 358° |
| 2026-04-29 08:58 | -34.86345 | 138.45371 | 2534 ft | 82 kts | 358° |
| 2026-04-29 08:58 | -34.85818 | 138.45393 | 2457 ft | 70 kts | 10° |
| 2026-04-29 08:58 | -34.85303 | 138.45445 | 2336 ft | 76 kts | 7° |
| 2026-04-29 08:59 | -34.84798 | 138.45522 | 2332 ft | 71 kts | 7° |
| 2026-04-29 08:59 | -34.84324 | 138.45674 | 2296 ft | 69 kts | 21° |
| 2026-04-29 08:59 | -34.84026 | 138.46060 | 2305 ft | 66 kts | 55° |
| 2026-04-29 08:59 | -34.83821 | 138.46609 | 2291 ft | 77 kts | 56° |
| 2026-04-29 09:00 | -34.83570 | 138.47154 | 2425 ft | 72 kts | 46° |
| 2026-04-29 09:00 | -34.83226 | 138.47662 | 2438 ft | 83 kts | 41° |
| 2026-04-29 09:00 | -34.82818 | 138.48178 | 2581 ft | 82 kts | 38° |
| 2026-04-29 09:00 | -34.82373 | 138.48659 | 2671 ft | 86 kts | 33° |
| 2026-04-29 09:01 | -34.81875 | 138.49098 | 2786 ft | 87 kts | 29° |
| 2026-04-29 09:01 | -34.81459 | 138.49617 | 2925 ft | 91 kts | 64° |
| 2026-04-29 09:01 | -34.81491 | 138.50442 | 3001 ft | 109 kts | 99° |
| 2026-04-29 09:01 | -34.81788 | 138.51384 | 2936 ft | 125 kts | 105° |
| 2026-04-29 09:02 | -34.82247 | 138.52322 | 2958 ft | 131 kts | 115° |
| 2026-04-29 09:02 | -34.82785 | 138.53288 | 2874 ft | 140 kts | 116° |
| 2026-04-29 09:02 | -34.83333 | 138.54248 | 2580 ft | 132 kts | 121° |
| 2026-04-29 09:02 | -34.83921 | 138.54965 | 2355 ft | 111 kts | 126° |
| 2026-04-29 09:03 | -34.84458 | 138.55643 | 2100 ft | 114 kts | 126° |
| 2026-04-29 09:03 | -34.84981 | 138.56370 | 1916 ft | 114 kts | 118° |
| 2026-04-29 09:03 | -34.85491 | 138.57123 | 1766 ft | 114 kts | 125° |
| 2026-04-29 09:03 | -34.86072 | 138.57788 | 1601 ft | 115 kts | 126° |
| 2026-04-29 09:04 | -34.86502 | 138.58491 | 1588 ft | 93 kts | 102° |
| 2026-04-29 09:04 | -34.86505 | 138.59203 | 1457 ft | 74 kts | 40° |
| 2026-04-29 09:04 | -34.86061 | 138.59557 | 1277 ft | 80 kts | 32° |
| 2026-04-29 09:04 | -34.85587 | 138.59900 | 1171 ft | 77 kts | 30° |
| 2026-04-29 09:05 | -34.85071 | 138.60146 | 994 ft | 85 kts | 26° |
| 2026-04-29 09:05 | -34.84372 | 138.60466 | 909 ft | 127 kts | 22° |
| 2026-04-29 09:05 | -34.83600 | 138.60936 | 729 ft | 106 kts | 29° |
| 2026-04-29 09:05 | -34.83031 | 138.61359 | 631 ft | 88 kts | 29° |
| 2026-04-29 09:06 | -34.82513 | 138.61685 | 560 ft | 83 kts | 25° |
| 2026-04-29 09:06 | -34.81966 | 138.62018 | 453 ft | 89 kts | 31° |
| 2026-04-29 09:06 | -34.81459 | 138.62372 | 377 ft | 79 kts | 26° |
| 2026-04-29 09:06 | -34.80994 | 138.62662 | 326 ft | 78 kts | 24° |
| 2026-04-29 09:07 | -34.80505 | 138.62978 | 152 ft | 74 kts | 30° |
| 2026-04-29 09:07 | -34.80054 | 138.63271 | 59 ft | 74 kts | 28° |
| 2026-04-29 09:07 | -34.79514 | 138.63620 | 315 ft | 95 kts | 24° |
| 2026-04-29 09:07 | -34.78870 | 138.63922 | 655 ft | 104 kts | 18° |
| 2026-04-29 09:08 | -34.78187 | 138.64217 | 969 ft | 98 kts | 19° |
| 2026-04-29 09:08 | -34.77642 | 138.64177 | 1195 ft | 75 kts | 312° |
| 2026-04-29 09:08 | -34.77782 | 138.63483 | 1090 ft | 113 kts | 225° |
| 2026-04-29 09:08 | -34.78387 | 138.62816 | 1081 ft | 116 kts | 221° |
| 2026-04-29 09:09 | -34.79031 | 138.62203 | 1125 ft | 114 kts | 216° |
| 2026-04-29 09:09 | -34.79665 | 138.61621 | 1157 ft | 115 kts | 218° |
| 2026-04-29 09:09 | -34.80330 | 138.61060 | 1106 ft | 115 kts | 213° |
| 2026-04-29 09:09 | -34.80991 | 138.60550 | 1090 ft | 110 kts | 211° |
| 2026-04-29 09:10 | -34.81651 | 138.60170 | 1112 ft | 97 kts | 179° |
| 2026-04-29 09:10 | -34.82188 | 138.60515 | 951 ft | 98 kts | 116° |
| 2026-04-29 09:10 | -34.82468 | 138.61250 | 808 ft | 97 kts | 102° |
| 2026-04-29 09:10 | -34.82451 | 138.61821 | 1054 ft | 59 kts | 9° |
| 2026-04-29 09:11 | -34.81964 | 138.62009 | 763 ft | 82 kts | 28° |
| 2026-04-29 09:11 | -34.81452 | 138.62357 | 560 ft | 83 kts | 29° |
| 2026-04-29 09:11 | -34.80964 | 138.62683 | 341 ft | 82 kts | 25° |
| 2026-04-29 09:11 | -34.80452 | 138.63014 | 130 ft | 80 kts | 28° |
| 2026-04-29 09:12 | -34.79998 | 138.63306 | 60 ft | 81 kts | 31° |
| 2026-04-29 09:12 | -34.79421 | 138.63680 | 380 ft | 95 kts | 24° |
| 2026-04-29 09:12 | -34.78840 | 138.63750 | 877 ft | 92 kts | 322° |
| 2026-04-29 09:12 | -34.78409 | 138.63129 | 874 ft | 98 kts | 311° |
| 2026-04-29 09:13 | -34.78582 | 138.62462 | 1047 ft | 102 kts | 216° |
| 2026-04-29 09:13 | -34.79240 | 138.61876 | 956 ft | 127 kts | 216° |
| 2026-04-29 09:13 | -34.80004 | 138.61276 | 980 ft | 138 kts | 207° |
| 2026-04-29 09:13 | -34.80839 | 138.61047 | 1183 ft | 96 kts | 144° |
| 2026-04-29 09:14 | -34.81229 | 138.61762 | 748 ft | 105 kts | 110° |
| 2026-04-29 09:14 | -34.81434 | 138.62474 | 727 ft | 72 kts | 38° |
| 2026-04-29 09:14 | -34.80941 | 138.62683 | 391 ft | 87 kts | 30° |
| 2026-04-29 09:14 | -34.80432 | 138.63028 | 122 ft | 80 kts | 30° |
| 2026-04-29 09:15 | -34.79974 | 138.63325 | 60 ft | 62 kts | 21° |
| 2026-04-29 09:15 | -34.79506 | 138.63631 | 77 ft | 100 kts | 31° |
| 2026-04-29 09:15 | -34.78941 | 138.64052 | 414 ft | 109 kts | 32° |
| 2026-04-29 09:15 | -34.78347 | 138.64519 | 1056 ft | 76 kts | 350° |
| 2026-04-29 09:16 | -34.78062 | 138.63892 | 906 ft | 127 kts | 287° |
| 2026-04-29 09:16 | -34.78186 | 138.62932 | 983 ft | 111 kts | 234° |
| 2026-04-29 09:16 | -34.78845 | 138.62337 | 716 ft | 129 kts | 211° |
| 2026-04-29 09:16 | -34.79599 | 138.61807 | 670 ft | 119 kts | 210° |
| 2026-04-29 09:17 | -34.80284 | 138.61324 | 579 ft | 111 kts | 206° |
| 2026-04-29 09:17 | -34.80939 | 138.61302 | 658 ft | 99 kts | 132° |
| 2026-04-29 09:17 | -34.81290 | 138.62050 | 480 ft | 101 kts | 101° |
| 2026-04-29 09:17 | -34.81237 | 138.62711 | 461 ft | 79 kts | 3° |
| 2026-04-29 09:18 | -34.80643 | 138.62857 | 259 ft | 95 kts | 41° |
| 2026-04-29 09:18 | -34.80112 | 138.63234 | 59 ft | 74 kts | 29° |
| 2026-04-29 09:18 | -34.79846 | 138.63406 | 61 ft | 30 kts | 31° |
| 2026-04-29 09:18 | -34.79699 | 138.63512 | 63 ft | 19 kts | 17° |
| 2026-04-29 09:19 | -34.79588 | 138.63518 | 62 ft | 20 kts | 306° |
| 2026-04-29 09:19 | -34.79575 | 138.63492 | 62 ft | 0 kts | 326° |
| 2026-04-29 09:26 | -34.79606 | 138.63431 | 63 ft | 21 kts | 209° |
| 2026-04-29 09:26 | -34.79769 | 138.63324 | 61 ft | 25 kts | 213° |
| 2026-04-29 09:26 | -34.79922 | 138.63225 | 60 ft | 40 kts | 209° |
| 2026-04-29 09:26 | -34.80122 | 138.63095 | 57 ft | 18 kts | 217° |
| 2026-04-29 09:27 | -34.80187 | 138.63097 | 57 ft | 6 kts | 137° |
| 2026-04-29 09:27 | -34.80198 | 138.63115 | 58 ft | 4 kts | 126° |
| 2026-04-29 09:27 | -34.80245 | 138.63148 | 59 ft | 30 kts | 207° |
| 2026-04-29 09:27 | -34.80364 | 138.63084 | 57 ft | 4 kts | 191° |
| 2026-04-29 09:28 | -34.80361 | 138.63074 | 57 ft | 6 kts | 25° |
| 2026-04-29 09:28 | -34.80358 | 138.63075 | 57 ft | 0 kts | 27° |
| 2026-04-29 09:28 | -34.80303 | 138.63112 | 58 ft | 35 kts | 30° |
| 2026-04-29 09:28 | -34.79879 | 138.63388 | 177 ft | 86 kts | 29° |
| 2026-04-29 09:29 | -34.79382 | 138.63718 | 594 ft | 86 kts | 28° |
| 2026-04-29 09:29 | -34.78346 | 138.63766 | 1286 ft | 89 kts | 319° |
| 2026-04-29 09:29 | -34.78078 | 138.63077 | 1123 ft | 98 kts | 295° |
| 2026-04-29 09:30 | -34.78034 | 138.62267 | 1133 ft | 93 kts | 243° |
| 2026-04-29 09:30 | -34.78568 | 138.61734 | 995 ft | 120 kts | 206° |
| 2026-04-29 09:30 | -34.79361 | 138.61264 | 1008 ft | 123 kts | 205° |
| 2026-04-29 09:30 | -34.80123 | 138.60857 | 1145 ft | 112 kts | 187° |
| 2026-04-29 09:31 | -34.80741 | 138.61240 | 1054 ft | 105 kts | 123° |
| 2026-04-29 09:31 | -34.81255 | 138.61775 | 1184 ft | 108 kts | 176° |
| 2026-04-29 09:31 | -34.81265 | 138.61400 | 1216 ft | 99 kts | 52° |
| 2026-04-29 09:31 | -34.81088 | 138.62324 | 648 ft | 123 kts | 53° |
| 2026-04-29 09:32 | -34.80295 | 138.63107 | 86 ft | 151 kts | 30° |
| 2026-04-29 09:32 | -34.79483 | 138.63634 | 173 ft | 125 kts | 22° |
| 2026-04-29 09:32 | -34.79485 | 138.63117 | 743 ft | 122 kts | 205° |
| 2026-04-29 09:32 | -34.80242 | 138.62643 | 689 ft | 116 kts | 210° |
| 2026-04-29 09:33 | -34.80920 | 138.62174 | 560 ft | 110 kts | 209° |
| 2026-04-29 09:33 | -34.81552 | 138.61726 | 486 ft | 101 kts | 207° |
| 2026-04-29 09:33 | -34.82148 | 138.61549 | 608 ft | 80 kts | 143° |
| 2026-04-29 09:33 | -34.82290 | 138.62048 | 892 ft | 73 kts | 30° |
| 2026-04-29 09:34 | -34.81667 | 138.62129 | 762 ft | 87 kts | 37° |
| 2026-04-29 09:34 | -34.81246 | 138.62535 | 672 ft | 64 kts | 28° |
| 2026-04-29 09:34 | -34.80825 | 138.62746 | 419 ft | 69 kts | 28° |
| 2026-04-29 09:34 | -34.80394 | 138.63052 | 114 ft | 74 kts | 30° |
| 2026-04-29 09:35 | -34.79959 | 138.63333 | 62 ft | 84 kts | 32° |
| 2026-04-29 09:35 | -34.79419 | 138.63683 | 598 ft | 67 kts | 28° |
| 2026-04-29 09:35 | -34.79011 | 138.63817 | 955 ft | 73 kts | 339° |
| 2026-04-29 09:35 | -34.78768 | 138.63174 | 1195 ft | 97 kts | 261° |
| 2026-04-29 09:36 | -34.79259 | 138.62663 | 1272 ft | 109 kts | 213° |
| 2026-04-29 09:36 | -34.80029 | 138.62174 | 1233 ft | 130 kts | 208° |
| 2026-04-29 09:36 | -34.80804 | 138.61626 | 618 ft | 133 kts | 210° |
| 2026-04-29 09:36 | -34.81483 | 138.61395 | 1031 ft | 74 kts | 118° |
| 2026-04-29 09:37 | -34.81649 | 138.62030 | 947 ft | 95 kts | 83° |
| 2026-04-29 09:37 | -34.81311 | 138.62428 | 584 ft | 100 kts | 36° |
| 2026-04-29 09:37 | -34.80744 | 138.62819 | 228 ft | 91 kts | 31° |
| 2026-04-29 09:37 | -34.80236 | 138.63155 | 72 ft | 73 kts | 29° |
| 2026-04-29 09:38 | -34.79845 | 138.63413 | 68 ft | 63 kts | 23° |
| 2026-04-29 09:38 | -34.79347 | 138.63728 | 71 ft | 105 kts | 33° |
| 2026-04-29 09:38 | -34.79030 | 138.63933 | 637 ft | 72 kts | 14° |
| 2026-04-29 09:38 | -34.78667 | 138.63632 | 941 ft | 99 kts | 262° |
| 2026-04-29 09:39 | -34.79299 | 138.63001 | 978 ft | 140 kts | 209° |
| 2026-04-29 09:39 | -34.80134 | 138.62367 | 883 ft | 135 kts | 209° |
| 2026-04-29 09:39 | -34.80743 | 138.62520 | 523 ft | 96 kts | 97° |
| 2026-04-29 09:39 | -34.80426 | 138.63019 | 137 ft | 76 kts | 33° |
| 2026-04-29 09:40 | -34.80038 | 138.63283 | 61 ft | 48 kts | 26° |
| 2026-04-29 09:40 | -34.79903 | 138.63327 | 61 ft | 10 kts | 302° |
| 2026-04-29 09:40 | -34.79894 | 138.63306 | 61 ft | 0 kts | 292° |
| 2026-04-29 09:41 | -34.79892 | 138.63304 | 61 ft | 0 kts | 310° |
| 2026-04-29 09:48 | -34.79882 | 138.63281 | 60 ft | 5 kts | 284° |
| 2026-04-29 09:48 | -34.79876 | 138.63264 | 60 ft | 4 kts | 291° |
| 2026-04-29 09:48 | -34.80011 | 138.63165 | 59 ft | 38 kts | 211° |
| 2026-04-29 09:48 | -34.80165 | 138.63083 | 57 ft | 14 kts | 159° |
| 2026-04-29 09:49 | -34.80192 | 138.63106 | 58 ft | 0 kts | 128° |
| 2026-04-29 09:49 | -34.80193 | 138.63107 | 58 ft | 0 kts | 134° |
| 2026-04-29 09:49 | -34.80201 | 138.63124 | 59 ft | 9 kts | 120° |
| 2026-04-29 09:49 | -34.80296 | 138.63113 | 59 ft | 25 kts | 208° |
| 2026-04-29 09:50 | -34.80365 | 138.63071 | 58 ft | 12 kts | 5° |
| 2026-04-29 09:50 | -34.80352 | 138.63078 | 58 ft | 0 kts | 30° |
| 2026-04-29 09:51 | -34.80142 | 138.63214 | 63 ft | 69 kts | 31° |
| 2026-04-29 09:51 | -34.79765 | 138.63487 | 424 ft | 62 kts | 18° |
| 2026-04-29 09:51 | -34.79358 | 138.63548 | 739 ft | 65 kts | 6° |
| 2026-04-29 09:51 | -34.78851 | 138.63832 | 897 ft | 94 kts | 33° |
| 2026-04-29 09:52 | -34.78204 | 138.64233 | 1159 ft | 107 kts | 24° |
| 2026-04-29 09:52 | -34.77644 | 138.64706 | 1631 ft | 100 kts | 45° |
| 2026-04-29 09:52 | -34.77212 | 138.65384 | 2032 ft | 99 kts | 56° |
| 2026-04-29 09:52 | -34.77017 | 138.65990 | 2527 ft | 84 kts | 48° |
| 2026-04-29 09:53 | -34.76607 | 138.66576 | 2557 ft | 116 kts | 41° |
| 2026-04-29 09:53 | -34.75924 | 138.67308 | 2489 ft | 124 kts | 39° |
| 2026-04-29 09:53 | -34.75378 | 138.67897 | 2571 ft | 97 kts | 38° |
| 2026-04-29 09:53 | -34.74900 | 138.68404 | 2510 ft | 82 kts | 39° |
| 2026-04-29 09:54 | -34.74457 | 138.68816 | 2447 ft | 82 kts | 31° |
| 2026-04-29 09:54 | -34.73941 | 138.69179 | 2477 ft | 90 kts | 25° |
| 2026-04-29 09:54 | -34.73427 | 138.69479 | 2817 ft | 75 kts | 25° |
| 2026-04-29 09:54 | -34.72948 | 138.69795 | 2739 ft | 107 kts | 24° |
| 2026-04-29 09:55 | -34.73068 | 138.70618 | 2610 ft | 149 kts | 141° |
| 2026-04-29 09:55 | -34.73918 | 138.71243 | 2653 ft | 140 kts | 140° |
| 2026-04-29 09:55 | -34.74762 | 138.71910 | 2590 ft | 165 kts | 147° |
| 2026-04-29 09:55 | -34.75797 | 138.72476 | 2850 ft | 164 kts | 147° |
| 2026-04-29 09:56 | -34.76792 | 138.73173 | 2993 ft | 171 kts | 140° |
| 2026-04-29 09:56 | -34.77773 | 138.74087 | 2947 ft | 183 kts | 137° |
| 2026-04-29 09:56 | -34.78820 | 138.75056 | 2790 ft | 198 kts | 137° |
| 2026-04-29 09:56 | -34.79882 | 138.76054 | 2972 ft | 171 kts | 140° |
| 2026-04-29 09:57 | -34.80828 | 138.76762 | 3002 ft | 155 kts | 141° |
| 2026-04-29 09:57 | -34.81691 | 138.77519 | 2828 ft | 153 kts | 133° |
| 2026-04-29 09:57 | -34.82496 | 138.78378 | 2656 ft | 152 kts | 131° |
| 2026-04-29 09:57 | -34.83279 | 138.79231 | 2569 ft | 146 kts | 131° |
| 2026-04-29 09:58 | -34.84001 | 138.80025 | 2546 ft | 136 kts | 130° |
| 2026-04-29 09:58 | -34.84682 | 138.80775 | 2552 ft | 127 kts | 129° |
| 2026-04-29 09:58 | -34.85351 | 138.81517 | 2564 ft | 130 kts | 128° |
| 2026-04-29 09:58 | -34.86028 | 138.82269 | 2575 ft | 135 kts | 129° |
| 2026-04-29 09:59 | -34.86745 | 138.83072 | 2580 ft | 141 kts | 130° |
| 2026-04-29 09:59 | -34.87505 | 138.83908 | 2590 ft | 153 kts | 129° |
| 2026-04-29 09:59 | -34.88319 | 138.84808 | 2551 ft | 160 kts | 130° |
| 2026-04-29 09:59 | -34.89151 | 138.85728 | 2556 ft | 163 kts | 130° |
| 2026-04-29 10:00 | -34.90080 | 138.86560 | 2525 ft | 173 kts | 156° |
| 2026-04-29 10:00 | -34.91311 | 138.86673 | 2551 ft | 176 kts | 174° |
| 2026-04-29 10:00 | -34.92535 | 138.86679 | 2568 ft | 177 kts | 176° |
| 2026-04-29 10:00 | -34.93785 | 138.86691 | 2571 ft | 176 kts | 174° |
| 2026-04-29 10:01 | -34.94991 | 138.86801 | 2571 ft | 174 kts | 170° |
| 2026-04-29 10:01 | -34.96202 | 138.86948 | 2645 ft | 169 kts | 170° |
| 2026-04-29 10:01 | -34.97344 | 138.86871 | 2742 ft | 165 kts | 190° |
| 2026-04-29 10:01 | -34.98508 | 138.86729 | 2704 ft | 170 kts | 184° |
| 2026-04-29 10:02 | -34.99674 | 138.86697 | 2824 ft | 162 kts | 177° |
| 2026-04-29 10:02 | -35.00846 | 138.86760 | 2484 ft | 177 kts | 172° |
| 2026-04-29 10:02 | -35.02058 | 138.86905 | 2457 ft | 166 kts | 173° |
| 2026-04-29 10:02 | -35.03206 | 138.86975 | 2346 ft | 165 kts | 172° |
| 2026-04-29 10:03 | -35.04338 | 138.87087 | 2289 ft | 161 kts | 179° |
| 2026-04-29 10:03 | -35.05417 | 138.86882 | 2290 ft | 155 kts | 188° |
| 2026-04-29 10:03 | -35.06443 | 138.86536 | 2246 ft | 152 kts | 197° |
| 2026-04-29 10:03 | -35.07432 | 138.86137 | 2275 ft | 146 kts | 197° |
| 2026-04-29 10:04 | -35.08375 | 138.85754 | 2371 ft | 133 kts | 195° |
| 2026-04-29 10:04 | -35.09224 | 138.85373 | 2400 ft | 133 kts | 201° |
| 2026-04-29 10:04 | -35.10085 | 138.84917 | 2405 ft | 132 kts | 206° |
| 2026-04-29 10:04 | -35.10828 | 138.84355 | 2529 ft | 115 kts | 239° |
| 2026-04-29 10:05 | -35.11067 | 138.83450 | 2506 ft | 123 kts | 262° |
| 2026-04-29 10:05 | -35.11363 | 138.82397 | 2654 ft | 137 kts | 254° |
| 2026-04-29 10:05 | -35.11644 | 138.81249 | 2803 ft | 143 kts | 261° |
| 2026-04-29 10:05 | -35.11897 | 138.80052 | 2942 ft | 151 kts | 259° |
| 2026-04-29 10:06 | -35.12163 | 138.78775 | 3028 ft | 158 kts | 261° |
| 2026-04-29 10:06 | -35.12431 | 138.77418 | 3054 ft | 166 kts | 261° |
| 2026-04-29 10:06 | -35.12563 | 138.76019 | 2756 ft | 173 kts | 271° |
| 2026-04-29 10:06 | -35.12557 | 138.74516 | 2307 ft | 199 kts | 285° |
| 2026-04-29 10:07 | -35.12188 | 138.72908 | 1886 ft | 169 kts | 287° |
| 2026-04-29 10:07 | -35.12063 | 138.71681 | 2135 ft | 131 kts | 279° |
| 2026-04-29 10:07 | -35.12238 | 138.70747 | 2415 ft | 100 kts | 249° |
| 2026-04-29 10:07 | -35.12608 | 138.70103 | 2494 ft | 102 kts | 237° |
| 2026-04-29 10:08 | -35.13127 | 138.69220 | 2498 ft | 144 kts | 239° |
| 2026-04-29 10:08 | -35.13782 | 138.68190 | 2574 ft | 166 kts | 232° |
| 2026-04-29 10:08 | -35.14597 | 138.67076 | 2554 ft | 182 kts | 229° |
| 2026-04-29 10:08 | -35.15494 | 138.65929 | 2574 ft | 191 kts | 227° |
| 2026-04-29 10:09 | -35.16639 | 138.65079 | 2576 ft | 198 kts | 186° |
| 2026-04-29 10:09 | -35.18000 | 138.65195 | 2746 ft | 192 kts | 181° |
| 2026-04-29 10:09 | -35.19275 | 138.64810 | 2783 ft | 197 kts | 193° |
| 2026-04-29 10:09 | -35.20629 | 138.64381 | 2816 ft | 198 kts | 194° |
| 2026-04-29 10:10 | -35.21607 | 138.64049 | 2935 ft | 194 kts | 194° |
| 2026-04-29 10:10 | -35.22507 | 138.63748 | 2903 ft | 195 kts | 194° |
| 2026-04-29 10:10 | -35.23388 | 138.63492 | 2992 ft | 188 kts | 190° |
| 2026-04-29 10:11 | -35.24649 | 138.63174 | 3088 ft | 182 kts | 194° |
| 2026-04-29 10:11 | -35.25821 | 138.62579 | 3106 ft | 183 kts | 210° |
| 2026-04-29 10:11 | -35.26779 | 138.61635 | 3260 ft | 171 kts | 234° |
| 2026-04-29 10:11 | -35.27526 | 138.60483 | 3262 ft | 171 kts | 236° |
| 2026-04-29 10:12 | -35.28214 | 138.59315 | 3078 ft | 172 kts | 243° |
| 2026-04-29 10:12 | -35.28646 | 138.58041 | 3023 ft | 161 kts | 261° |
| 2026-04-29 10:12 | -35.28815 | 138.56677 | 2833 ft | 165 kts | 277° |
| 2026-04-29 10:12 | -35.28662 | 138.55228 | 2824 ft | 174 kts | 279° |
| 2026-04-29 10:13 | -35.28600 | 138.53694 | 2168 ft | 196 kts | 283° |
| 2026-04-29 10:13 | -35.28296 | 138.52127 | 1764 ft | 181 kts | 284° |
| 2026-04-29 10:13 | -35.28044 | 138.50619 | 1096 ft | 173 kts | 285° |
| 2026-04-29 10:13 | -35.28166 | 138.49513 | 1179 ft | 116 kts | 223° |
| 2026-04-29 10:14 | -35.28894 | 138.49234 | 850 ft | 114 kts | 176° |
| 2026-04-29 10:14 | -35.29711 | 138.49255 | 736 ft | 113 kts | 181° |
| 2026-04-29 10:14 | -35.30698 | 138.49158 | 698 ft | 101 kts | 177° |
| 2026-04-29 10:14 | -35.31150 | 138.49116 | 701 ft | 94 kts | 195° |
| 2026-04-29 10:15 | -35.31173 | 138.48631 | 865 ft | 78 kts | 8° |
| 2026-04-29 10:15 | -35.31028 | 138.49185 | 1271 ft | 89 kts | 102° |
| 2026-04-29 10:15 | -35.31502 | 138.49927 | 1282 ft | 136 kts | 155° |
| 2026-04-29 10:15 | -35.32410 | 138.49931 | 1673 ft | 134 kts | 194° |
| 2026-04-29 10:16 | -35.33281 | 138.49341 | 1817 ft | 146 kts | 224° |
| 2026-04-29 10:16 | -35.33702 | 138.48247 | 1946 ft | 143 kts | 273° |
| 2026-04-29 10:16 | -35.33227 | 138.47336 | 2091 ft | 123 kts | 328° |
| 2026-04-29 10:16 | -35.32426 | 138.46840 | 1797 ft | 142 kts | 347° |
| 2026-04-29 10:17 | -35.31583 | 138.47145 | 1514 ft | 124 kts | 32° |
| 2026-04-29 10:17 | -35.30943 | 138.47665 | 1218 ft | 100 kts | 31° |
| 2026-04-29 10:17 | -35.30397 | 138.48151 | 841 ft | 101 kts | 29° |
| 2026-04-29 10:17 | -35.29831 | 138.48596 | 458 ft | 92 kts | 32° |
| 2026-04-29 10:18 | -35.29336 | 138.49022 | 176 ft | 83 kts | 34° |
| 2026-04-29 10:18 | -35.28912 | 138.49385 | 122 ft | 79 kts | 37° |
| 2026-04-29 10:18 | -35.28393 | 138.49834 | 482 ft | 86 kts | 17° |
| 2026-04-29 10:18 | -35.28015 | 138.49471 | 904 ft | 96 kts | 280° |
| 2026-04-29 10:19 | -35.28006 | 138.48567 | 1327 ft | 93 kts | 265° |
| 2026-04-29 10:19 | -35.28184 | 138.47737 | 1464 ft | 127 kts | 254° |
| 2026-04-29 10:19 | -35.28662 | 138.46658 | 1410 ft | 164 kts | 236° |
| 2026-04-29 10:19 | -35.29682 | 138.45152 | 1575 ft | 174 kts | 227° |
| 2026-04-29 10:20 | -35.30269 | 138.44518 | 1791 ft | 170 kts | 219° |
| 2026-04-29 10:20 | -35.31139 | 138.43665 | 2237 ft | 159 kts | 219° |
| 2026-04-29 10:20 | -35.32058 | 138.42830 | 2351 ft | 172 kts | 217° |
| 2026-04-29 10:20 | -35.33143 | 138.41998 | 2311 ft | 189 kts | 211° |
| 2026-04-29 10:21 | -35.34333 | 138.41258 | 2302 ft | 195 kts | 206° |
| 2026-04-29 10:21 | -35.35442 | 138.40390 | 2498 ft | 187 kts | 222° |
| 2026-04-29 10:21 | -35.36498 | 138.39961 | 3283 ft | 137 kts | 142° |
| 2026-04-29 10:21 | -35.37158 | 138.40688 | 3495 ft | 144 kts | 115° |
| 2026-04-29 10:22 | -35.37530 | 138.41907 | 3436 ft | 157 kts | 89° |
| 2026-04-29 10:22 | -35.37302 | 138.43126 | 3626 ft | 139 kts | 60° |
| 2026-04-29 10:22 | -35.36850 | 138.43893 | 3645 ft | 105 kts | 22° |
| 2026-04-29 10:22 | -35.35976 | 138.44141 | 3323 ft | 150 kts | 5° |
| 2026-04-29 10:23 | -35.34878 | 138.44426 | 2906 ft | 167 kts | 11° |
| 2026-04-29 10:23 | -35.33941 | 138.45071 | 2870 ft | 140 kts | 28° |
| 2026-04-29 10:23 | -35.32879 | 138.45810 | 2456 ft | 135 kts | 24° |
| 2026-04-29 10:23 | -35.32386 | 138.46323 | 2220 ft | 149 kts | 33° |
| 2026-04-29 10:24 | -35.31742 | 138.46985 | 1934 ft | 98 kts | 35° |
| 2026-04-29 10:24 | -35.31274 | 138.47362 | 1604 ft | 80 kts | 40° |
| 2026-04-29 10:24 | -35.30829 | 138.47739 | 1184 ft | 79 kts | 30° |
| 2026-04-29 10:24 | -35.30378 | 138.48108 | 785 ft | 75 kts | 39° |
| 2026-04-29 10:25 | -35.29973 | 138.48489 | 496 ft | 75 kts | 28° |
| 2026-04-29 10:25 | -35.29572 | 138.48808 | 300 ft | 65 kts | 35° |
| 2026-04-29 10:25 | -35.29219 | 138.49124 | 129 ft | 57 kts | 34° |
| 2026-04-29 10:25 | -35.28966 | 138.49341 | 120 ft | 33 kts | 35° |
| 2026-04-29 10:26 | -35.28907 | 138.49391 | 122 ft | 3 kts | 187° |
| 2026-04-29 10:26 | -35.28966 | 138.49341 | 120 ft | 12 kts | 214° |
| 2026-04-29 10:26 | -35.28992 | 138.49297 | 119 ft | 4 kts | 6° |
| 2026-04-29 10:26 | -35.28976 | 138.49287 | 119 ft | 0 kts | 307° |
| 2026-04-29 10:27 | -35.28962 | 138.49278 | 119 ft | 5 kts | 34° |
| 2026-04-29 10:27 | -35.28930 | 138.49293 | 119 ft | 6 kts | 316° |
| 2026-04-29 10:27 | -35.28932 | 138.49260 | 119 ft | 6 kts | 207° |
| 2026-04-29 10:28 | -35.28937 | 138.49254 | 119 ft | 0 kts | 327° |